Terminal Aerodrome Forecast
Issued by NWS

Current Version | Previous Version | Graphics & Text | Print | Product List | Glossary Off
Versions: 1 2 3 4 5 6 7 8 9 10 11 12 13 14 15 16 17 18 19 20 21 22 23 24

000
FTUS41 KRLX 040528
TAFCKB
TAF
KCKB 040528Z 0406/0506 00000KT P6SM OVC035
     FM040900 00000KT P6SM OVC120
     FM041600 07004KT P6SM OVC070
     FM050300 VRB03KT P6SM -SHRA OVC030=

USA.gov is the U.S. government's official web portal to all federal, state and local government web resources and services.